17  °C
Temperature
10  °C
  Dewpoint
   Humidity
Temp | Dewpoint | Humidity
32  km/h
Wind Speed
20  mph
Wind Speed
17  kts
Wind Speed
330°
North North
West

Wind Speed
Mostly Scattered
Clouds
Pressure 1016.92 (hPa) - 30.03 (in)
Visibility 6.2 (mi) - 10.0 (km)

Current Conditions
LGNX
Location 6km (3.2mi)
Metar :LGNX 081350Z 33017KT 9999 SCT025 17/10 Q1017
Sun 8th December 15:50 pm

Airport
  Metar Aviation API Data Provided by https://www.checkwx.com/ CSS/SVG/PHP scripts by weather34.com © 2015-2019